Stanardsville, Virginia
Current Conditions -  °F | °C
As of 8:53 PM on Saturday 22 Nov 2014 (Local Time) from KCHO Reporting Station
Clear Clear  
Wind Chill: 31°   Ceiling: Unl
Heat Index: 38°   Visibility: 10mi
Dew Point: 19°   Wind: 9mph
Humidity: 47%   Direction: 200°SSW
Pressure: 30.28"   Gusts: NA
Location:  38.3°N, 78.44°W
Report Text: KCHO 230153Z 20008KT 10SM CLR 03/M07 A3028 RMK AO2 SLP257 T00331072
Loading
Personal Weather Stations






























Interactive Weather Map New forecast layout! Learn more

10-Day Weather Forecast

Advertisements
Track Severe Weather on mobile